createdAt,value
2022-09-30T00:00:20.107Z,17.43
2022-09-30T00:01:52.406Z,17.40
2022-09-30T00:03:24.906Z,17.40
2022-09-30T00:04:57.075Z,17.37
2022-09-30T00:06:30.298Z,17.38
2022-09-30T00:08:02.354Z,17.34
2022-09-30T00:09:34.469Z,17.34
2022-09-30T00:11:07.694Z,17.37
2022-09-30T00:12:40.050Z,17.39
2022-09-30T00:14:16.529Z,17.44
2022-09-30T00:15:48.696Z,17.43
2022-09-30T00:17:21.364Z,17.44
2022-09-30T00:18:55.757Z,17.47
2022-09-30T00:20:27.789Z,17.47
2022-09-30T00:21:59.878Z,17.47
2022-09-30T00:25:10.820Z,17.46
2022-09-30T00:26:43.046Z,17.50
2022-09-30T00:28:16.261Z,17.51
2022-09-30T00:29:48.341Z,17.49
2022-09-30T00:31:21.248Z,17.48
2022-09-30T00:32:53.342Z,17.46
2022-09-30T00:34:25.464Z,17.46
2022-09-30T00:35:57.640Z,17.47
2022-09-30T00:37:29.669Z,17.48
2022-09-30T00:39:01.894Z,17.49
2022-09-30T00:40:34.032Z,17.50
2022-09-30T00:42:12.481Z,17.55
2022-09-30T00:43:53.875Z,17.56
2022-09-30T00:45:28.086Z,17.56
2022-09-30T00:47:00.301Z,17.56
2022-09-30T00:48:39.607Z,17.58
2022-09-30T00:50:35.667Z,17.58
2022-09-30T00:52:07.725Z,17.55
2022-09-30T00:53:47.589Z,17.58
2022-09-30T00:55:34.327Z,17.58
2022-09-30T00:57:08.567Z,17.56
2022-09-30T00:58:45.813Z,17.57
2022-09-30T01:00:17.837Z,17.54
2022-09-30T01:01:50.269Z,17.56
2022-09-30T01:03:23.094Z,17.56
2022-09-30T01:04:56.539Z,17.55
2022-09-30T01:06:29.053Z,17.55
2022-09-30T01:08:02.663Z,17.57
2022-09-30T01:09:36.487Z,17.58
2022-09-30T01:11:08.615Z,17.56
2022-09-30T01:12:40.890Z,17.58
2022-09-30T01:14:19.001Z,17.62
2022-09-30T01:16:18.478Z,17.62
2022-09-30T01:18:08.493Z,17.62
2022-09-30T01:19:40.594Z,17.59
2022-09-30T01:21:37.408Z,17.62
2022-09-30T01:23:41.527Z,17.61
2022-09-30T01:25:56.463Z,17.63
2022-09-30T01:29:42.870Z,17.63
2022-09-30T01:31:26.732Z,17.63
2022-09-30T01:33:01.550Z,17.60
2022-09-30T01:34:43.396Z,17.64
2022-09-30T01:36:35.027Z,17.61
2022-09-30T01:38:34.109Z,17.65
2022-09-30T01:40:14.735Z,17.65
2022-09-30T01:41:56.334Z,17.67
2022-09-30T01:43:38.822Z,17.65
2022-09-30T01:45:23.122Z,17.67
2022-09-30T01:47:22.457Z,17.65
2022-09-30T01:49:20.744Z,17.65
2022-09-30T01:50:55.664Z,17.59
2022-09-30T01:52:40.614Z,17.62
2022-09-30T01:54:19.307Z,17.59
2022-09-30T01:55:56.424Z,17.59
2022-09-30T01:57:35.601Z,17.59
2022-09-30T01:59:23.904Z,17.60
2022-09-30T02:00:59.936Z,17.62
2022-09-30T02:02:34.023Z,17.62
2022-09-30T02:04:17.314Z,17.64
2022-09-30T02:06:06.840Z,17.68
2022-09-30T02:07:45.837Z,17.69
2022-09-30T02:09:28.136Z,17.69
2022-09-30T02:11:08.541Z,17.72
2022-09-30T02:12:48.061Z,17.72
2022-09-30T02:14:26.525Z,17.73
2022-09-30T02:16:13.266Z,17.73
2022-09-30T02:17:53.867Z,17.74
2022-09-30T02:19:37.916Z,17.75
2022-09-30T02:21:11.215Z,17.72
2022-09-30T02:22:45.167Z,17.72
2022-09-30T02:24:18.406Z,17.68
2022-09-30T02:25:56.588Z,17.65
2022-09-30T02:27:40.727Z,17.61
2022-09-30T02:29:19.304Z,17.55
2022-09-30T02:30:52.752Z,17.52
2022-09-30T02:32:33.962Z,17.50
2022-09-30T02:34:14.069Z,17.46
2022-09-30T02:35:50.292Z,17.42
2022-09-30T02:37:29.001Z,17.42
2022-09-30T02:39:07.348Z,17.37
2022-09-30T02:40:43.776Z,17.34
2022-09-30T02:43:58.667Z,17.20
2022-09-30T02:45:35.228Z,17.16
2022-09-30T02:47:16.983Z,17.11
2022-09-30T02:49:26.126Z,17.08
2022-09-30T02:51:02.454Z,17.04
2022-09-30T02:52:47.423Z,17.02
2022-09-30T02:54:39.156Z,17.01
2022-09-30T02:56:22.770Z,16.96
2022-09-30T02:58:17.894Z,16.91
2022-09-30T02:59:52.462Z,16.85
2022-09-30T03:01:25.391Z,16.78
2022-09-30T03:03:02.028Z,16.77
2022-09-30T03:04:35.428Z,16.71
2022-09-30T03:06:07.440Z,16.75
2022-09-30T03:07:40.988Z,16.69
2022-09-30T03:09:13.123Z,16.61
2022-09-30T03:10:45.596Z,16.53
2022-09-30T03:12:41.726Z,16.43
2022-09-30T03:14:37.234Z,16.35
2022-09-30T03:16:17.862Z,16.28
2022-09-30T03:18:01.125Z,16.25
2022-09-30T03:20:07.062Z,16.26
2022-09-30T03:22:07.032Z,16.22
2022-09-30T03:24:12.967Z,16.17
2022-09-30T03:25:57.289Z,16.14
2022-09-30T03:28:00.840Z,16.09
2022-09-30T03:29:45.527Z,16.05
2022-09-30T03:31:40.687Z,16.02
2022-09-30T03:33:25.800Z,15.96
2022-09-30T03:35:14.951Z,15.93
2022-09-30T03:37:03.902Z,15.89
2022-09-30T03:39:05.729Z,15.90
2022-09-30T03:40:50.230Z,15.85
2022-09-30T03:42:39.002Z,15.83
2022-09-30T03:44:22.529Z,15.83
2022-09-30T03:46:10.237Z,15.82
2022-09-30T03:47:45.679Z,15.78
2022-09-30T03:49:22.767Z,15.74
2022-09-30T03:50:55.391Z,15.68
2022-09-30T03:52:28.305Z,15.67
2022-09-30T03:54:00.378Z,15.64
2022-09-30T03:55:33.780Z,15.63
2022-09-30T03:57:06.001Z,15.68
2022-09-30T03:58:41.930Z,15.65
2022-09-30T04:00:14.236Z,15.60
2022-09-30T04:01:46.278Z,15.57
2022-09-30T04:03:19.934Z,15.56
2022-09-30T04:04:52.020Z,15.51
2022-09-30T04:06:25.992Z,15.51
2022-09-30T04:07:57.946Z,15.45
2022-09-30T04:09:29.971Z,15.43
2022-09-30T04:12:39.574Z,15.31
2022-09-30T04:14:11.576Z,15.31
2022-09-30T04:15:43.627Z,15.29
2022-09-30T04:17:15.649Z,15.25
2022-09-30T04:18:47.717Z,15.21
2022-09-30T04:20:20.108Z,15.15
2022-09-30T04:21:55.830Z,15.18
2022-09-30T04:23:27.862Z,15.12
2022-09-30T04:24:59.834Z,15.09
2022-09-30T04:26:31.843Z,15.09
2022-09-30T04:28:03.917Z,15.09
2022-09-30T04:29:36.196Z,15.11
2022-09-30T04:31:12.485Z,15.10
2022-09-30T04:32:45.775Z,15.08
2022-09-30T04:34:17.776Z,15.07
2022-09-30T04:35:54.208Z,15.12
2022-09-30T04:37:26.200Z,15.09
2022-09-30T04:38:58.348Z,15.08
2022-09-30T04:40:30.367Z,15.06
2022-09-30T04:42:02.381Z,15.02
2022-09-30T04:43:34.874Z,15.01
2022-09-30T04:45:07.594Z,14.97
2022-09-30T04:46:39.713Z,14.95
2022-09-30T04:48:15.487Z,14.95
2022-09-30T04:49:47.831Z,14.92
2022-09-30T04:51:21.769Z,14.92
2022-09-30T04:52:56.599Z,14.90
2022-09-30T04:54:28.756Z,14.94
2022-09-30T04:56:01.630Z,14.97
2022-09-30T04:57:33.670Z,14.96
2022-09-30T04:59:05.983Z,15.00
2022-09-30T05:00:38.788Z,14.99
2022-09-30T05:02:13.126Z,15.03
2022-09-30T05:03:45.822Z,15.08
2022-09-30T05:05:18.558Z,15.08
2022-09-30T05:06:50.665Z,15.11
2022-09-30T05:08:23.402Z,15.14
2022-09-30T05:16:44.585Z,15.37
2022-09-30T05:18:16.977Z,15.40
2022-09-30T05:19:49.103Z,15.45
2022-09-30T05:21:21.283Z,15.49
2022-09-30T05:22:56.865Z,15.54
2022-09-30T05:24:30.433Z,15.59
2022-09-30T05:26:05.031Z,15.64
2022-09-30T05:27:38.948Z,15.68
2022-09-30T05:29:11.436Z,15.74
2022-09-30T05:30:44.156Z,15.77
2022-09-30T05:32:16.433Z,15.83
2022-09-30T05:33:48.651Z,15.91
2022-09-30T05:35:20.756Z,15.97
2022-09-30T05:36:53.558Z,16.06
2022-09-30T05:38:25.694Z,16.13
2022-09-30T05:39:57.748Z,16.21
2022-09-30T05:41:30.930Z,16.26
2022-09-30T05:43:02.911Z,16.32
2022-09-30T05:44:35.027Z,16.39
2022-09-30T05:46:07.385Z,16.48
2022-09-30T05:47:39.892Z,16.56
2022-09-30T05:49:11.876Z,16.63
2022-09-30T05:52:15.685Z,16.82
2022-09-30T05:53:47.913Z,16.87
2022-09-30T05:55:22.524Z,16.96
2022-09-30T05:56:54.616Z,17.07
2022-09-30T05:58:27.739Z,17.17
2022-09-30T05:59:59.800Z,17.35
2022-09-30T06:01:32.099Z,17.51
2022-09-30T06:03:04.361Z,17.69
2022-09-30T06:04:37.241Z,17.81
2022-09-30T06:06:10.213Z,17.94
2022-09-30T06:07:42.638Z,18.04
2022-09-30T06:09:14.921Z,18.14
2022-09-30T06:10:47.227Z,18.23
2022-09-30T06:12:19.250Z,18.30
2022-09-30T06:13:52.128Z,18.39
2022-09-30T06:15:24.440Z,18.43
2022-09-30T06:16:56.471Z,18.49
2022-09-30T06:18:30.101Z,18.58
2022-09-30T06:20:05.276Z,18.67
2022-09-30T06:21:37.528Z,18.74
2022-09-30T06:23:09.814Z,18.85
2022-09-30T06:24:42.324Z,18.95
2022-09-30T06:26:15.112Z,19.08
2022-09-30T06:27:47.969Z,19.18
2022-09-30T06:29:20.119Z,19.26
2022-09-30T06:30:52.431Z,19.34
2022-09-30T06:32:26.649Z,19.43
2022-09-30T06:33:58.755Z,19.48
2022-09-30T06:35:31.083Z,19.58
2022-09-30T06:37:03.455Z,19.65
2022-09-30T06:38:37.540Z,19.77
2022-09-30T06:40:10.109Z,19.86
2022-09-30T06:41:44.663Z,19.94
2022-09-30T06:43:20.340Z,20.06
2022-09-30T06:44:53.580Z,20.10
2022-09-30T06:46:30.631Z,20.15
2022-09-30T06:48:05.974Z,20.24
2022-09-30T06:49:47.957Z,20.28
2022-09-30T06:51:21.794Z,20.36
2022-09-30T06:52:59.640Z,20.46
2022-09-30T06:54:31.943Z,20.48
2022-09-30T06:56:05.452Z,20.52
2022-09-30T06:57:37.617Z,20.58
2022-09-30T06:59:09.932Z,20.64
2022-09-30T07:00:42.267Z,20.69
2022-09-30T07:02:14.739Z,20.78
2022-09-30T07:03:52.645Z,20.90
2022-09-30T07:05:26.881Z,20.94
2022-09-30T07:06:59.181Z,20.95
2022-09-30T07:08:32.735Z,21.05
2022-09-30T07:10:05.437Z,21.10
2022-09-30T07:11:39.247Z,21.17
2022-09-30T07:13:11.415Z,21.23
2022-09-30T07:14:43.635Z,21.29
2022-09-30T07:16:17.958Z,21.36
2022-09-30T07:17:54.279Z,21.42
2022-09-30T07:19:26.681Z,21.45
2022-09-30T07:20:58.917Z,21.53
2022-09-30T07:22:32.529Z,21.58
2022-09-30T07:24:04.780Z,21.67
2022-09-30T07:25:37.105Z,21.72
2022-09-30T07:27:09.473Z,21.77
2022-09-30T07:28:41.783Z,21.85
2022-09-30T07:30:21.540Z,21.90
2022-09-30T07:31:57.424Z,21.98
2022-09-30T07:33:31.829Z,22.03
2022-09-30T07:35:04.469Z,22.07
2022-09-30T07:36:40.716Z,22.12
2022-09-30T07:38:13.034Z,22.16
2022-09-30T07:39:47.525Z,22.27
2022-09-30T07:41:24.939Z,22.34
2022-09-30T07:42:58.162Z,22.39
2022-09-30T07:44:30.500Z,22.52
2022-09-30T07:46:11.667Z,22.59
2022-09-30T07:47:44.048Z,22.64
2022-09-30T07:49:25.222Z,22.74
2022-09-30T07:51:00.973Z,22.82
2022-09-30T07:52:33.167Z,22.86
2022-09-30T07:54:12.074Z,22.96
2022-09-30T07:55:44.458Z,22.99
2022-09-30T07:57:16.809Z,23.07
2022-09-30T07:58:49.956Z,23.21
2022-09-30T08:00:41.556Z,23.38
2022-09-30T08:02:20.152Z,23.45
2022-09-30T08:03:57.579Z,23.52
2022-09-30T08:05:29.865Z,23.52
2022-09-30T08:07:02.731Z,23.62
2022-09-30T08:08:37.324Z,23.73
2022-09-30T08:10:10.260Z,23.75
2022-09-30T08:11:43.437Z,23.80
2022-09-30T08:13:17.157Z,23.92
2022-09-30T08:14:49.889Z,23.93
2022-09-30T08:16:23.525Z,23.97
2022-09-30T08:17:56.017Z,23.98
2022-09-30T08:19:30.065Z,24.04
2022-09-30T08:21:06.803Z,24.12
2022-09-30T08:22:39.190Z,24.16
2022-09-30T08:25:44.741Z,24.28
2022-09-30T08:27:17.090Z,24.31
2022-09-30T08:28:49.509Z,24.34
2022-09-30T08:30:21.719Z,24.40
2022-09-30T08:31:54.274Z,24.47
2022-09-30T08:33:26.625Z,24.52
2022-09-30T08:34:58.997Z,24.57
2022-09-30T08:36:31.391Z,24.65
2022-09-30T08:38:04.269Z,24.69
2022-09-30T08:39:39.266Z,24.78
2022-09-30T08:41:27.132Z,24.82
2022-09-30T08:43:25.237Z,24.92
2022-09-30T08:45:17.498Z,25.02
2022-09-30T08:46:51.151Z,25.04
2022-09-30T08:48:25.990Z,25.09
2022-09-30T08:50:06.143Z,25.17
2022-09-30T08:51:42.376Z,25.22
2022-09-30T08:53:21.617Z,25.32
2022-09-30T08:54:55.644Z,25.34
2022-09-30T08:56:32.982Z,25.40
2022-09-30T08:58:05.818Z,25.44
2022-09-30T08:59:43.485Z,25.51
2022-09-30T09:01:15.953Z,25.53
2022-09-30T09:02:56.955Z,25.61
2022-09-30T09:04:29.152Z,25.61
2022-09-30T09:06:19.505Z,25.62
2022-09-30T09:08:03.865Z,25.67
2022-09-30T09:09:44.851Z,25.68
2022-09-30T09:11:42.803Z,25.75
2022-09-30T09:13:30.685Z,25.78
2022-09-30T09:15:37.995Z,25.81
2022-09-30T09:18:10.920Z,25.89
2022-09-30T09:19:57.614Z,25.96
2022-09-30T09:21:52.741Z,26.01
2022-09-30T09:23:26.536Z,26.04
2022-09-30T09:24:59.947Z,26.06
2022-09-30T09:26:37.472Z,26.09
2022-09-30T09:29:01.118Z,26.15
2022-09-30T09:30:37.131Z,26.17
2022-09-30T09:32:14.997Z,26.16
2022-09-30T09:33:47.719Z,26.16
2022-09-30T09:35:26.501Z,26.23
2022-09-30T09:37:17.568Z,26.28
2022-09-30T09:39:02.520Z,26.30
2022-09-30T09:41:10.372Z,26.36
2022-09-30T09:42:46.688Z,26.32
2022-09-30T09:44:28.051Z,26.38
2022-09-30T09:46:14.145Z,26.40
2022-09-30T09:47:51.984Z,26.40
2022-09-30T09:49:24.514Z,26.39
2022-09-30T09:50:59.984Z,26.44
2022-09-30T09:52:44.077Z,26.53
2022-09-30T09:54:21.466Z,26.58
2022-09-30T09:55:59.760Z,26.59
2022-09-30T09:57:32.854Z,26.59
2022-09-30T09:59:05.589Z,26.69
2022-09-30T10:00:47.117Z,26.67
2022-09-30T10:02:38.981Z,26.81
2022-09-30T10:04:16.186Z,26.81
2022-09-30T10:06:07.753Z,26.90
2022-09-30T10:07:40.126Z,26.88
2022-09-30T10:09:33.253Z,27.01
2022-09-30T10:11:07.907Z,27.00
2022-09-30T10:12:42.227Z,27.05
2022-09-30T10:14:19.592Z,27.03
2022-09-30T10:15:54.961Z,27.02
2022-09-30T10:17:33.481Z,27.04
2022-09-30T10:19:23.842Z,27.08
2022-09-30T10:20:59.790Z,27.12
2022-09-30T10:24:29.329Z,27.22
2022-09-30T10:26:06.335Z,27.24
2022-09-30T10:27:40.769Z,27.25
2022-09-30T10:29:39.654Z,27.32
2022-09-30T10:31:18.812Z,27.33
2022-09-30T10:32:51.220Z,27.31
2022-09-30T10:34:40.897Z,27.35
2022-09-30T10:36:18.897Z,27.32
2022-09-30T10:37:55.459Z,27.37
2022-09-30T10:39:32.001Z,27.42
2022-09-30T10:41:06.425Z,27.40
2022-09-30T10:42:41.944Z,27.42
2022-09-30T10:44:22.953Z,27.43
2022-09-30T10:46:13.742Z,27.44
2022-09-30T10:47:51.687Z,27.50
2022-09-30T10:49:42.297Z,27.56
2022-09-30T10:51:34.539Z,27.58
2022-09-30T10:53:19.914Z,27.60
2022-09-30T10:55:00.984Z,27.59
2022-09-30T10:58:30.388Z,27.45
2022-09-30T11:00:08.679Z,27.34
2022-09-30T11:01:52.532Z,27.25
2022-09-30T11:03:43.689Z,27.12
2022-09-30T11:05:25.468Z,27.03
2022-09-30T11:07:27.663Z,26.96
2022-09-30T11:09:20.609Z,26.88
2022-09-30T11:11:10.652Z,26.80
2022-09-30T11:12:46.372Z,26.81
2022-09-30T11:14:30.898Z,26.84
2022-09-30T11:16:09.578Z,26.88
2022-09-30T11:17:55.161Z,26.95
2022-09-30T11:19:32.784Z,27.04
2022-09-30T11:21:13.687Z,27.17
2022-09-30T11:22:51.985Z,27.25
2022-09-30T11:24:33.629Z,27.40
2022-09-30T11:26:14.698Z,27.46
2022-09-30T11:28:17.316Z,27.64
2022-09-30T11:30:04.277Z,27.74
2022-09-30T11:32:10.548Z,27.79
2022-09-30T11:33:53.687Z,27.88
2022-09-30T11:35:51.599Z,27.95
2022-09-30T11:37:32.619Z,28.06
2022-09-30T11:39:29.125Z,28.18
2022-09-30T11:41:12.464Z,28.24
2022-09-30T11:43:08.935Z,28.29
2022-09-30T11:44:43.390Z,28.33
2022-09-30T11:46:18.578Z,28.31
2022-09-30T11:47:54.757Z,28.34
2022-09-30T11:49:42.365Z,28.33
2022-09-30T11:51:23.484Z,28.36
2022-09-30T11:53:04.768Z,28.42
2022-09-30T11:54:48.853Z,28.48
2022-09-30T11:56:25.315Z,28.50
2022-09-30T11:58:36.273Z,28.58
2022-09-30T12:00:02.493Z,28.62
2022-09-30T12:01:38.661Z,28.69
2022-09-30T12:03:25.516Z,28.68
2022-09-30T12:05:01.513Z,28.65
2022-09-30T12:07:00.313Z,28.69
2022-09-30T12:08:39.680Z,28.58
2022-09-30T12:10:21.982Z,28.54
2022-09-30T12:11:58.307Z,28.52
2022-09-30T12:13:36.966Z,28.47
2022-09-30T12:15:16.168Z,28.45
2022-09-30T12:16:49.239Z,28.43
2022-09-30T12:18:22.347Z,28.48
2022-09-30T12:19:56.988Z,28.49
2022-09-30T12:21:42.859Z,28.54
2022-09-30T12:23:18.847Z,28.55
2022-09-30T12:24:51.276Z,28.63
2022-09-30T12:26:23.607Z,28.59
2022-09-30T12:28:30.048Z,28.67
2022-09-30T12:30:18.216Z,28.73
2022-09-30T12:32:12.483Z,28.76
2022-09-30T12:34:05.738Z,28.77
2022-09-30T12:36:04.213Z,28.81
2022-09-30T12:37:45.802Z,28.90
2022-09-30T12:39:26.970Z,28.94
2022-09-30T12:41:47.498Z,29.03
2022-09-30T12:43:30.781Z,29.07
2022-09-30T12:45:14.979Z,29.04
2022-09-30T12:47:38.206Z,29.11
2022-09-30T12:49:18.382Z,29.16
2022-09-30T12:50:54.707Z,29.20
2022-09-30T12:52:27.485Z,29.21
2022-09-30T12:54:13.527Z,29.27
2022-09-30T12:55:46.443Z,29.25
2022-09-30T12:57:24.881Z,29.20
2022-09-30T12:58:58.312Z,29.08
2022-09-30T13:00:34.997Z,28.99
2022-09-30T13:02:08.882Z,28.88
2022-09-30T13:03:53.260Z,28.80
2022-09-30T13:06:58.354Z,28.69
2022-09-30T13:08:48.295Z,28.68
2022-09-30T13:10:29.373Z,28.63
2022-09-30T13:12:01.834Z,28.51
2022-09-30T13:13:59.810Z,28.52
2022-09-30T13:15:32.189Z,28.43
2022-09-30T13:17:07.584Z,28.46
2022-09-30T13:18:41.471Z,28.43
2022-09-30T13:20:51.135Z,28.56
2022-09-30T13:22:32.042Z,28.66
2022-09-30T13:24:06.128Z,28.66
2022-09-30T13:25:54.861Z,28.77
2022-09-30T13:27:40.653Z,28.81
2022-09-30T13:29:18.469Z,28.88
2022-09-30T13:30:50.825Z,28.91
2022-09-30T13:32:34.947Z,28.98
2022-09-30T13:34:13.128Z,28.97
2022-09-30T13:35:48.980Z,28.97
2022-09-30T13:37:36.454Z,29.03
2022-09-30T13:39:25.067Z,29.05
2022-09-30T13:41:02.959Z,29.01
2022-09-30T13:42:42.630Z,29.08
2022-09-30T13:44:18.373Z,29.08
2022-09-30T13:45:53.532Z,29.10
2022-09-30T13:47:34.499Z,29.10
2022-09-30T13:49:25.252Z,29.11
2022-09-30T13:51:00.315Z,29.05
2022-09-30T13:52:34.854Z,29.03
2022-09-30T13:54:11.802Z,29.02
2022-09-30T13:55:45.763Z,29.01
2022-09-30T13:57:26.971Z,29.04
2022-09-30T13:59:22.901Z,29.04
2022-09-30T14:00:59.443Z,28.98
2022-09-30T14:02:45.721Z,28.97
2022-09-30T14:04:27.025Z,29.00
2022-09-30T14:06:23.526Z,28.98
2022-09-30T14:08:23.318Z,28.98
2022-09-30T14:09:55.626Z,28.89
2022-09-30T14:11:45.111Z,28.87
2022-09-30T14:13:42.061Z,28.92
2022-09-30T14:15:57.660Z,28.90
2022-09-30T14:17:41.900Z,28.91
2022-09-30T14:19:52.556Z,28.90
2022-09-30T14:21:43.778Z,28.86
2022-09-30T14:23:17.931Z,28.78
2022-09-30T14:24:50.939Z,28.73
2022-09-30T14:26:22.839Z,28.73
2022-09-30T14:28:05.301Z,28.71
2022-09-30T14:29:37.475Z,28.63
2022-09-30T14:31:14.982Z,28.62
2022-09-30T14:32:53.325Z,28.58
2022-09-30T14:34:26.344Z,28.54
2022-09-30T14:38:09.888Z,28.50
2022-09-30T14:39:43.564Z,28.44
2022-09-30T14:41:25.178Z,28.46
2022-09-30T14:43:06.195Z,28.46
2022-09-30T14:44:39.361Z,28.43
2022-09-30T14:46:34.691Z,28.47
2022-09-30T14:48:19.754Z,28.42
2022-09-30T14:49:52.117Z,28.39
2022-09-30T14:51:24.436Z,28.37
2022-09-30T14:52:59.203Z,28.35
2022-09-30T14:54:32.788Z,28.35
2022-09-30T14:56:42.784Z,28.35
2022-09-30T14:58:44.032Z,28.32
2022-09-30T15:00:28.780Z,28.29
2022-09-30T15:02:03.532Z,28.26
2022-09-30T15:03:38.664Z,28.23
2022-09-30T15:05:14.248Z,28.21
2022-09-30T15:06:49.356Z,28.16
2022-09-30T15:08:22.822Z,28.10
2022-09-30T15:09:55.339Z,28.04
2022-09-30T15:11:27.679Z,28.01
2022-09-30T15:12:59.935Z,27.98
2022-09-30T15:14:33.475Z,27.95
2022-09-30T15:16:23.124Z,27.98
2022-09-30T15:17:58.197Z,27.88
2022-09-30T15:19:35.413Z,27.88
2022-09-30T15:21:15.866Z,27.83
2022-09-30T15:22:48.841Z,27.77
2022-09-30T15:24:23.919Z,27.73
2022-09-30T15:25:57.952Z,27.66
2022-09-30T15:27:31.572Z,27.60
2022-09-30T15:29:05.952Z,27.55
2022-09-30T15:30:38.656Z,27.45
2022-09-30T15:32:16.128Z,27.37
2022-09-30T15:33:48.434Z,27.22
2022-09-30T15:35:22.828Z,27.11
2022-09-30T15:37:08.357Z,27.00
2022-09-30T15:38:40.943Z,26.83
2022-09-30T15:40:34.043Z,26.72
2022-09-30T15:42:06.361Z,26.54
2022-09-30T15:43:43.934Z,26.42
2022-09-30T15:45:35.611Z,26.28
2022-09-30T15:47:09.842Z,26.08
2022-09-30T15:48:45.383Z,25.87
2022-09-30T15:50:44.102Z,25.70
2022-09-30T15:52:33.838Z,25.55
2022-09-30T15:54:15.555Z,25.40
2022-09-30T15:55:52.176Z,25.24
2022-09-30T15:57:48.657Z,25.11
2022-09-30T15:59:22.996Z,24.94
2022-09-30T16:01:23.742Z,24.79
2022-09-30T16:04:32.898Z,24.42
2022-09-30T16:06:07.607Z,24.28
2022-09-30T16:07:42.656Z,24.13
2022-09-30T16:09:21.176Z,24.00
2022-09-30T16:10:57.929Z,23.87
2022-09-30T16:12:34.429Z,23.78
2022-09-30T16:14:17.522Z,23.63
2022-09-30T16:15:51.483Z,23.45
2022-09-30T16:17:27.095Z,23.36
2022-09-30T16:19:01.681Z,23.24
2022-09-30T16:20:34.018Z,23.08
2022-09-30T16:22:06.633Z,23.01
2022-09-30T16:23:39.379Z,22.92
2022-09-30T16:25:17.459Z,22.82
2022-09-30T16:26:56.999Z,22.72
2022-09-30T16:28:29.393Z,22.63
2022-09-30T16:30:02.358Z,22.54
2022-09-30T16:31:34.940Z,22.45
2022-09-30T16:34:39.464Z,22.31
2022-09-30T16:36:12.628Z,22.24
2022-09-30T16:37:44.911Z,22.20
2022-09-30T16:39:17.837Z,22.10
2022-09-30T16:40:50.614Z,22.02
2022-09-30T16:42:23.104Z,21.95
2022-09-30T16:43:55.535Z,21.86
2022-09-30T16:45:29.246Z,21.86
2022-09-30T16:47:04.984Z,21.79
2022-09-30T16:48:40.241Z,21.71
2022-09-30T16:50:20.319Z,21.65
2022-09-30T16:51:55.728Z,21.54
2022-09-30T16:53:28.097Z,21.47
2022-09-30T16:55:03.288Z,21.40
2022-09-30T16:56:35.793Z,21.33
2022-09-30T16:58:11.555Z,21.30
2022-09-30T16:59:44.763Z,21.21
2022-09-30T17:01:20.701Z,21.19
2022-09-30T17:02:53.489Z,21.08
2022-09-30T17:04:27.334Z,21.05
2022-09-30T17:06:00.900Z,20.99
2022-09-30T17:07:33.139Z,20.89
2022-09-30T17:09:05.808Z,20.84
2022-09-30T17:10:38.083Z,20.78
2022-09-30T17:12:12.856Z,20.76
2022-09-30T17:13:45.474Z,20.65
2022-09-30T17:15:19.400Z,20.64
2022-09-30T17:16:52.607Z,20.57
2022-09-30T17:18:24.779Z,20.57
2022-09-30T17:19:57.421Z,20.48
2022-09-30T17:21:29.865Z,20.41
2022-09-30T17:23:06.919Z,20.32
2022-09-30T17:24:39.706Z,20.24
2022-09-30T17:26:14.576Z,20.18
2022-09-30T17:27:52.692Z,20.14
2022-09-30T17:29:32.214Z,20.05
2022-09-30T17:31:05.463Z,19.99
2022-09-30T17:32:37.860Z,19.96
2022-09-30T17:34:10.400Z,19.94
2022-09-30T17:35:42.965Z,19.91
2022-09-30T17:37:17.558Z,19.88
2022-09-30T17:38:54.091Z,19.77
2022-09-30T17:40:45.093Z,19.65
2022-09-30T17:42:35.781Z,19.50
2022-09-30T17:44:08.176Z,19.43
2022-09-30T17:45:42.993Z,19.45
2022-09-30T17:47:15.332Z,19.39
2022-09-30T17:48:47.815Z,19.34
2022-09-30T17:50:22.518Z,19.30
2022-09-30T17:51:54.761Z,19.26
2022-09-30T17:53:29.705Z,19.21
2022-09-30T17:55:02.097Z,19.18
2022-09-30T17:56:34.760Z,19.17
2022-09-30T17:58:08.105Z,19.16
2022-09-30T17:59:43.669Z,19.16
2022-09-30T18:01:18.181Z,19.11
2022-09-30T18:02:50.644Z,19.05
2022-09-30T18:04:25.175Z,19.03
2022-09-30T18:05:59.195Z,18.99
2022-09-30T18:07:31.771Z,18.93
2022-09-30T18:09:04.659Z,18.92
2022-09-30T18:10:38.465Z,18.92
2022-09-30T18:12:10.678Z,18.87
2022-09-30T18:13:43.143Z,18.83
2022-09-30T18:15:17.356Z,18.80
2022-09-30T18:16:49.870Z,18.75
2022-09-30T18:18:22.572Z,18.72
2022-09-30T18:19:54.906Z,18.69
2022-09-30T18:21:28.182Z,18.62
2022-09-30T18:23:00.243Z,18.60
2022-09-30T18:24:50.770Z,18.53
2022-09-30T18:26:24.368Z,18.48
2022-09-30T18:28:00.652Z,18.46
2022-09-30T18:29:33.159Z,18.40
2022-09-30T18:31:06.978Z,18.41
2022-09-30T18:34:23.959Z,18.36
2022-09-30T18:35:58.360Z,18.38
2022-09-30T18:37:33.623Z,18.37
2022-09-30T18:39:05.939Z,18.31
2022-09-30T18:40:43.745Z,18.30
2022-09-30T18:42:17.857Z,18.24
2022-09-30T18:43:51.813Z,18.20
2022-09-30T18:45:25.327Z,18.14
2022-09-30T18:46:58.532Z,18.10
2022-09-30T18:48:32.373Z,18.05
2022-09-30T18:50:06.882Z,18.01
2022-09-30T18:51:39.215Z,17.94
2022-09-30T18:53:13.176Z,17.91
2022-09-30T18:54:45.527Z,17.85
2022-09-30T18:56:20.976Z,17.80
2022-09-30T18:57:56.574Z,17.82
2022-09-30T18:59:30.223Z,17.76
2022-09-30T19:01:06.385Z,17.75
2022-09-30T19:02:42.266Z,17.75
2022-09-30T19:04:14.697Z,17.70
2022-09-30T19:05:47.090Z,17.67
2022-09-30T19:07:20.697Z,17.64
2022-09-30T19:08:53.205Z,17.61
2022-09-30T19:10:26.665Z,17.60
2022-09-30T19:12:00.450Z,17.57
2022-09-30T19:13:32.786Z,17.56
2022-09-30T19:15:06.571Z,17.55
2022-09-30T19:16:39.931Z,17.56
2022-09-30T19:18:12.451Z,17.51
2022-09-30T19:19:46.407Z,17.50
2022-09-30T19:21:20.851Z,17.48
2022-09-30T19:22:53.169Z,17.46
2022-09-30T19:24:27.495Z,17.47
2022-09-30T19:26:01.629Z,17.45
2022-09-30T19:27:36.482Z,17.43
2022-09-30T19:29:10.868Z,17.44
2022-09-30T19:30:43.275Z,17.40
2022-09-30T19:32:15.773Z,17.38
2022-09-30T19:33:56.072Z,17.38
2022-09-30T19:35:37.819Z,17.35
2022-09-30T19:37:22.615Z,17.33
2022-09-30T19:39:10.363Z,17.31
2022-09-30T19:40:44.028Z,17.28
2022-09-30T19:42:18.549Z,17.24
2022-09-30T19:43:51.112Z,17.20
2022-09-30T19:45:26.123Z,17.19
2022-09-30T19:46:58.789Z,17.17
2022-09-30T19:48:32.185Z,17.16
2022-09-30T19:50:04.859Z,17.18
2022-09-30T19:51:37.467Z,17.13
2022-09-30T19:53:10.433Z,17.09
2022-09-30T19:54:44.795Z,17.07
2022-09-30T19:56:20.576Z,17.07
2022-09-30T19:57:52.921Z,17.02
2022-09-30T19:59:25.204Z,16.97
2022-09-30T20:00:57.916Z,16.90
2022-09-30T20:02:30.189Z,16.84
2022-09-30T20:04:05.550Z,16.79
2022-09-30T20:07:10.036Z,16.66
2022-09-30T20:09:01.433Z,16.71
2022-09-30T20:10:34.011Z,16.66
2022-09-30T20:12:07.555Z,16.64
2022-09-30T20:13:40.069Z,16.65
2022-09-30T20:15:30.775Z,16.61
2022-09-30T20:17:03.086Z,16.60
2022-09-30T20:18:36.970Z,16.61
2022-09-30T20:20:28.362Z,16.57
2022-09-30T20:22:00.571Z,16.56
2022-09-30T20:23:39.571Z,16.57
2022-09-30T20:25:12.040Z,16.54
2022-09-30T20:26:45.080Z,16.53
2022-09-30T20:28:17.859Z,16.51
2022-09-30T20:29:50.477Z,16.51
2022-09-30T20:31:22.627Z,16.47
2022-09-30T20:32:55.169Z,16.45
2022-09-30T20:34:27.662Z,16.45
2022-09-30T20:36:05.827Z,16.47
2022-09-30T20:37:40.252Z,16.43
2022-09-30T20:39:13.160Z,16.42
2022-09-30T20:40:45.991Z,16.39
2022-09-30T20:42:18.494Z,16.43
2022-09-30T20:43:54.204Z,16.41
2022-09-30T20:45:28.433Z,16.37
2022-09-30T20:47:00.715Z,16.37
2022-09-30T20:48:35.169Z,16.35
2022-09-30T20:50:08.105Z,16.31
2022-09-30T20:51:40.453Z,16.28
2022-09-30T20:53:14.063Z,16.27
2022-09-30T20:54:46.139Z,16.25
2022-09-30T20:56:20.146Z,16.24
2022-09-30T20:57:54.173Z,16.22
2022-09-30T20:59:26.346Z,16.12
2022-09-30T21:01:03.982Z,16.17
2022-09-30T21:02:36.190Z,16.14
2022-09-30T21:04:08.299Z,16.12
2022-09-30T21:05:40.898Z,16.12
2022-09-30T21:07:12.965Z,16.09
2022-09-30T21:08:45.303Z,16.13
2022-09-30T21:10:20.926Z,16.12
2022-09-30T21:11:53.757Z,16.12
2022-09-30T21:13:26.430Z,16.12
2022-09-30T21:14:58.792Z,16.08
2022-09-30T21:16:31.584Z,16.04
2022-09-30T21:18:04.397Z,16.02
2022-09-30T21:19:36.709Z,16.01
2022-09-30T21:21:13.904Z,15.99
2022-09-30T21:22:46.659Z,15.96
2022-09-30T21:24:19.014Z,15.99
2022-09-30T21:26:04.336Z,16.01
2022-09-30T21:27:36.600Z,15.93
2022-09-30T21:29:08.706Z,15.89
2022-09-30T21:30:41.610Z,15.91
2022-09-30T21:32:14.151Z,15.89